Mitchell, Louisiana
Current Conditions -  °F | °C
As of 6:15 PM on Thursday 27 Nov 2014 (Local Time) from KIER Reporting Station
Clear Clear  
Wind Chill: 45°   Ceiling: Unl
Heat Index: 45°   Visibility: 10mi
Dew Point: 39°   Wind: 0mph
Humidity: 81%   Direction: NA
Pressure: 30.45"   Gusts: NA
Location:  31.7915°N, 93.7011°W
Report Text: KIER 280015Z AUTO 00000KT 10SM CLR 07/04 A3045 RMK AO2 T00700039
Loading
Personal Weather Stations






























Interactive Weather Map New forecast layout! Learn more

10-Day Weather Forecast

Advertisements
Track Severe Weather on mobile